地図

経路データ

SID SEASON NUMBER BASIN SUBBASIN NAME ISO_TIME NATURE LAT LON WMO_WIND WMO_PRES WMO_AGENCY TRACK_TYPE DIST2LAND LANDFALL IFLAG USA_AGENCY USA_ATCF_ID USA_LAT USA_LON USA_RECORD USA_STATUS USA_WIND USA_PRES USA_SSHS USA_R34_NE USA_R34_SE USA_R34_SW USA_R34_NW USA_R50_NE USA_R50_SE USA_R50_SW USA_R50_NW USA_R64_NE USA_R64_SE USA_R64_SW USA_R64_NW USA_POCI USA_ROCI USA_RMW USA_EYE TOKYO_LAT TOKYO_LON TOKYO_GRADE TOKYO_WIND TOKYO_PRES TOKYO_R50_DIR TOKYO_R50_LONG TOKYO_R50_SHORT TOKYO_R30_DIR TOKYO_R30_LONG TOKYO_R30_SHORT TOKYO_LAND CMA_LAT CMA_LON CMA_CAT CMA_WIND CMA_PRES HKO_LAT HKO_LON HKO_CAT HKO_WIND HKO_PRES NEWDELHI_LAT NEWDELHI_LON NEWDELHI_GRADE NEWDELHI_WIND NEWDELHI_PRES NEWDELHI_CI NEWDELHI_DP NEWDELHI_POCI REUNION_LAT REUNION_LON REUNION_TYPE REUNION_WIND REUNION_PRES REUNION_TNUM REUNION_CI REUNION_RMW REUNION_R34_NE REUNION_R34_SE REUNION_R34_SW REUNION_R34_NW REUNION_R50_NE REUNION_R50_SE REUNION_R50_SW REUNION_R50_NW REUNION_R64_NE REUNION_R64_SE REUNION_R64_SW REUNION_R64_NW BOM_LAT BOM_LON BOM_TYPE BOM_WIND BOM_PRES BOM_TNUM BOM_CI BOM_RMW BOM_R34_NE BOM_R34_SE BOM_R34_SW BOM_R34_NW BOM_R50_NE BOM_R50_SE BOM_R50_SW BOM_R50_NW BOM_R64_NE BOM_R64_SE BOM_R64_SW BOM_R64_NW BOM_ROCI BOM_POCI BOM_EYE BOM_POS_METHOD BOM_PRES_METHOD NADI_LAT NADI_LON NADI_CAT NADI_WIND NADI_PRES WELLINGTON_LAT WELLINGTON_LON WELLINGTON_WIND WELLINGTON_PRES DS824_LAT DS824_LON DS824_STAGE DS824_WIND DS824_PRES TD9636_LAT TD9636_LON TD9636_STAGE TD9636_WIND TD9636_PRES TD9635_LAT TD9635_LON TD9635_WIND TD9635_PRES TD9635_ROCI NEUMANN_LAT NEUMANN_LON NEUMANN_CLASS NEUMANN_WIND NEUMANN_PRES MLC_LAT MLC_LON MLC_CLASS MLC_WIND MLC_PRES USA_GUST BOM_GUST BOM_GUST_PER REUNION_GUST REUNION_GUST_PER USA_SEAHGT USA_SEARAD_NE USA_SEARAD_SE USA_SEARAD_SW USA_SEARAD_NW STORM_SPEED STORM_DIR
1946070S12057 1946 19 SI MM NOT_NAMED 1946-03-11 06:00:00 NR -12.3000 57.1000 reunion main 777 774 _____O________ -1 -12.3000 57.1000 99 9.90000 1 147
1946070S12057 1946 19 SI MM NOT_NAMED 1946-03-11 09:00:00 NR -12.3573 57.1467 main 774 774 _____P________ -1 -12.3573 57.1467 99 2 140
1946070S12057 1946 19 SI MM NOT_NAMED 1946-03-11 12:00:00 NR -12.4175 57.1960 main 785 782 _____P________ -1 -12.4175 57.1960 99 2 141
1946070S12057 1946 19 SI MM NOT_NAMED 1946-03-11 15:00:00 NR -12.4835 57.2508 main 793 793 _____P________ -1 -12.4835 57.2508 99 2 127
1946070S12057 1946 19 SI MM NOT_NAMED 1946-03-11 18:00:00 TS -12.5332 57.3506 main 804 799 O____P___OO___ jtwc_sh SH171946 -12.5000 57.4000 -1 -12.5580 57.3136 99 -12.5000 57.4000 TC -12.5000 57.4000 1 2 128
1946070S12057 1946 19 SI MM NOT_NAMED 1946-03-11 21:00:00 TS -12.6138 57.4214 main 799 799 P____P___PP___ SH171946 -12.5950 57.4350 -1 -12.6441 57.3872 99 -12.5950 57.4350 TC -12.5906 57.4627 1 2 140
1946070S12057 1946 19 SI MM NOT_NAMED 1946-03-12 00:00:00 TS -12.7125 57.5014 main 805 801 O____P___OP___ jtwc_sh SH171946 -12.7000 57.5000 -1 -12.7446 57.4744 99 -12.7000 57.5000 TC -12.6949 57.5402 1 3 139
1946070S12057 1946 19 SI MM NOT_NAMED 1946-03-12 03:00:00 TS -12.8360 57.6164 main 812 794 P____P___PP___ SH171946 -12.8275 57.6201 -1 -12.8622 57.5777 99 -12.8275 57.6201 TC -12.8268 57.6477 1 4 137
1946070S12057 1946 19 SI MM NOT_NAMED 1946-03-12 06:00:00 TS -13.0000 57.7750 reunion main 794 772 O____O___OO___ jtwc_sh SH171946 -13.0000 57.8000 -1 -13.0000 57.7000 99 9.90000 -13.0000 57.8000 TC 25 -13.0000 57.8000 1 5 137
1946070S12057 1946 19 SI MM NOT_NAMED 1946-03-12 09:00:00 TS -13.2131 57.9802 main 772 751 P____P___PP___ SH171946 -13.2350 58.0350 -1 -13.1602 57.8440 99 -13.2350 58.0350 TC 25 -13.2223 58.0067 1 6 137
1946070S12057 1946 19 SI MM NOT_NAMED 1946-03-12 12:00:00 TS -13.4552 58.2168 main 740 720 O____P___OP___ jtwc_sh SH171946 -13.5000 58.3000 -1 -13.3430 58.0125 99 -13.5000 58.3000 TC 25 -13.4776 58.2547 1 7 136
1946070S12057 1946 19 SI MM NOT_NAMED 1946-03-12 15:00:00 TS -13.7018 58.4585 main 721 700 P____P___PP___ SH171946 -13.7575 58.5500 -1 -13.5482 58.2084 99 -13.7575 58.5500 TC 25 -13.7441 58.5255 1 7 136
1946070S12057 1946 19 SI MM NOT_NAMED 1946-03-12 18:00:00 TS -13.9439 58.7086 main 701 681 O____P___OO___ jtwc_sh SH171946 -14.0000 58.8000 -1 -13.7755 58.4344 99 -14.0000 58.8000 TC 25 -14.0000 58.8000 1 7 133
1946070S12057 1946 19 SI MM NOT_NAMED 1946-03-12 21:00:00 TS -14.1542 58.9490 main 672 665 P____P___PP___ SH171946 -14.2075 59.0501 -1 -14.0246 58.6936 99 -14.2075 59.0501 TC 25 -14.1773 59.0023 1 6 131
1946070S12057 1946 19 SI MM NOT_NAMED 1946-03-13 00:00:00 TS -14.3605 59.2002 main 657 641 O____P___OP___ jtwc_sh SH171946 -14.4000 59.3000 -1 -14.2953 58.9889 99 -14.4000 59.3000 TC 25 -14.3466 59.2118 1 6 130
1946070S12057 1946 19 SI MM NOT_NAMED 1946-03-13 03:00:00 TS -14.5674 59.4536 main 644 629 P____P___PP___ SH171946 -14.5698 59.5128 -1 -14.5872 59.3233 99 -14.5698 59.5128 TC 25 -14.5427 59.4652 1 7 130
1946070S12057 1946 19 SI MM NOT_NAMED 1946-03-13 06:00:00 TS -14.8250 59.7750 reunion main 633 608 O____O___OO___ jtwc_sh SH171946 -14.8000 59.8000 -1 -14.9000 59.7000 99 9.90000 -14.8000 59.8000 TC 25 -14.8000 59.8000 1 10 130
1946070S12057 1946 19 SI MM NOT_NAMED 1946-03-13 09:00:00 TS -15.1821 60.2219 main 608 595 P____P___PP___ SH171946 -15.1625 60.2475 -1 -15.2342 60.1217 99 -15.1625 60.2475 TC 25 -15.1690 60.2710 1 12 129
1946070S12057 1946 19 SI MM NOT_NAMED 1946-03-13 12:00:00 TS -15.5978 60.7535 main 600 589 O____P___OP___ jtwc_sh SH171946 -15.6000 60.8000 -1 -15.5927 60.5900 99 -15.6000 60.8000 TC 25 -15.5983 60.8239 1 14 129
1946070S12057 1946 19 SI MM NOT_NAMED 1946-03-13 15:00:00 TS -16.0307 61.3279 main 596 592 P____P___PP___ SH171946 -16.0501 61.3999 -1 -15.9692 61.0965 99 -16.0501 61.3999 TC 25 -16.0533 61.4150 1 14 128
1946070S12057 1946 19 SI MM NOT_NAMED 1946-03-13 18:00:00 TS -16.4643 61.9082 main 598 598 O____P___OO___ jtwc_sh SH171946 -16.5000 62.0000 -1 -16.3571 61.6328 99 -16.5000 62.0000 TC 25 -16.5000 62.0000 1 14 128
1946070S12057 1946 19 SI MM NOT_NAMED 1946-03-13 21:00:00 TS -16.8702 62.4339 main 611 611 P____P___PP___ SH171946 -16.9148 62.5153 -1 -16.7503 62.1900 99 -16.9148 62.5153 TC 25 -16.9010 62.5150 1 13 129
1946070S12057 1946 19 SI MM NOT_NAMED 1946-03-14 00:00:00 TS -17.2573 62.9438 main 630 630 O____P___OP___ jtwc_sh SH171946 -17.3000 63.0000 -1 -17.1426 62.7596 99 -17.3000 63.0000 TC 25 -17.2867 63.0158 1 12 128
1946070S12057 1946 19 SI MM NOT_NAMED 1946-03-14 03:00:00 TS -17.6279 63.4604 main 671 666 P____P___PP___ SH171946 -17.6649 63.5002 -1 -17.5278 63.3326 99 -17.6649 63.5002 TC 25 -17.6541 63.5087 1 12 126
1946070S12057 1946 19 SI MM NOT_NAMED 1946-03-14 06:00:00 TS -17.9750 63.9750 reunion main 700 700 O____O___OO___ jtwc_sh SH171946 -18.0000 64.0000 -1 -17.9000 63.9000 99 9.90000 -18.0000 64.0000 TC 25 -18.0000 64.0000 1 12 124
1946070S12057 1946 19 SI MM NOT_NAMED 1946-03-14 09:00:00 TS -18.2962 64.4848 main 737 737 P____P___PP___ SH171946 -18.3074 64.5002 -1 -18.2489 64.4500 99 -18.3074 64.5002 TC 25 -18.3209 64.4888 1 12 123
1946070S12057 1946 19 SI MM NOT_NAMED 1946-03-14 12:00:00 TS -18.6027 64.9954 main 778 778 O____P___OP___ jtwc_sh SH171946 -18.6000 65.0000 -1 -18.5893 65.0028 99 -18.6000 65.0000 TC 25 -18.6216 64.9788 1 11 122
1946070S12057 1946 19 SI MM NOT_NAMED 1946-03-14 15:00:00 TS -18.9077 65.5009 main 821 821 P____P___PP___ SH171946 -18.8997 65.4853 -1 -18.9200 65.5534 99 -18.8997 65.4853 TC 25 -18.9115 65.4794 1 12 122
1946070S12057 1946 19 SI MM NOT_NAMED 1946-03-14 18:00:00 TS -19.2101 66.0243 main 866 866 O____P___OO___ jtwc_sh SH171946 -19.2000 66.0000 -1 -19.2403 66.0971 99 -19.2000 66.0000 TC 25 -19.2000 66.0000 1 12 120
1946070S12057 1946 19 SI MM NOT_NAMED 1946-03-14 21:00:00 TS -19.5155 66.5999 main 924 924 P____P___PP___ SH171946 -19.5000 66.5926 -1 -19.5492 66.6287 99 -19.5000 66.5926 TC 25 -19.5126 66.5856 1 13 119
1946070S12057 1946 19 SI MM NOT_NAMED 1946-03-15 00:00:00 TS -19.8173 67.1825 main 983 982 O____P___OP___ jtwc_sh SH171946 -19.8000 67.2000 -1 -19.8460 67.1431 99 -19.8000 67.2000 TC 25 -19.8232 67.1870 1 12 119
1946070S12057 1946 19 SI MM NOT_NAMED 1946-03-15 03:00:00 TS -20.1167 67.7413 main 1033 1033 P____P___PP___ SH171946 -20.1074 67.7800 -1 -20.1298 67.6353 99 -20.1074 67.7800 TC 25 -20.1221 67.7700 1 12 120
1946070S12057 1946 19 SI MM NOT_NAMED 1946-03-15 06:00:00 TS -20.4000 68.2500 reunion main 1094 1094 O____O___OO___ jtwc_sh SH171946 -20.4000 68.3000 -1 -20.4000 68.1000 99 9.90000 -20.4000 68.3000 TC 25 -20.4000 68.3000 1 10 122
1946070S12057 1946 19 SI MM NOT_NAMED 1946-03-15 09:00:00 TS -20.6577 68.6817 main 1135 1135 P____P___PP___ SH171946 -20.6648 68.7302 -1 -20.6557 68.5288 99 -20.6648 68.7302 TC 25 -20.6456 68.7376 1 9 123
1946070S12057 1946 19 SI MM NOT_NAMED 1946-03-15 12:00:00 TS -20.8921 69.0622 main 1177 1177 O____P___OP___ jtwc_sh SH171946 -20.9000 69.1000 -1 -20.8971 68.9301 99 -20.9000 69.1000 TC 25 -20.8713 69.1188 1 8 123
1946070S12057 1946 19 SI MM NOT_NAMED 1946-03-15 15:00:00 TS -21.1071 69.4222 main 1209 1209 P____P___PP___ SH171946 -21.1074 69.4577 -1 -21.1272 69.3080 99 -21.1074 69.4577 TC 25 -21.0864 69.4655 1 8 123
1946070S12057 1946 19 SI MM NOT_NAMED 1946-03-15 18:00:00 TS -21.3121 69.7667 main 1251 1251 O____P___OO___ jtwc_sh SH171946 -21.3000 69.8000 -1 -21.3485 69.6669 99 -21.3000 69.8000 TC 25 -21.3000 69.8000 7 8 122
1946070S12057 1946 19 SI MM NOT_NAMED 1946-03-15 21:00:00 TS -21.5184 70.1183 main 1284 1284 P____P___PP___ SH171946 -21.4924 70.1502 -1 -21.5639 70.0112 99 -21.4924 70.1502 TC 25 -21.5248 70.1616 7 8 123
1946070S12057 1946 19 SI MM NOT_NAMED 1946-03-16 00:00:00 TS -21.7314 70.4651 main 1327 1327 O____P___OP___ jtwc_sh SH171946 -21.7000 70.5000 -1 -21.7759 70.3452 99 -21.7000 70.5000 TC 25 -21.7497 70.5154 7 8 125
1946070S12057 1946 19 SI MM NOT_NAMED 1946-03-16 03:00:00 TS -21.9654 70.8125 main 1360 1360 P____P___PP___ SH171946 -21.9500 70.8575 -1 -21.9870 70.6733 99 -21.9500 70.8575 TC 25 -21.9748 70.8616 7 8 126
1946070S12057 1946 19 SI MM NOT_NAMED 1946-03-16 06:00:00 TS -22.2000 71.1500 reunion main 1404 1393 O____O___OO___ jtwc_sh SH171946 -22.2000 71.2000 -1 -22.2000 71.0000 99 9.90000 -22.2000 71.2000 TC 25 -22.2000 71.2000 7 8 126
1946070S12057 1946 19 SI MM NOT_NAMED 1946-03-16 09:00:00 TS -22.4118 71.4716 main 1437 1437 P____P___PP___ SH171946 -22.3999 71.5003 -1 -22.4226 71.3533 99 -22.3999 71.5003 TC 25 -22.4247 71.5325 7 7 126
1946070S12057 1946 19 SI MM NOT_NAMED 1946-03-16 12:00:00 TS -22.6237 71.7902 main 1470 1470 O____P___OP___ jtwc_sh SH171946 -22.6000 71.8000 -1 -22.6451 71.7028 99 -22.6000 71.8000 TC 25 -22.6496 71.8580 7 8 126
1946070S12057 1946 19 SI MM NOT_NAMED 1946-03-16 15:00:00 TS -22.8607 72.1319 main 1505 1505 P____P___PP___ SH171946 -22.8500 72.1499 -1 -22.8680 72.0483 99 -22.8500 72.1499 TC 25 -22.8747 72.1794 7 8 127
1946070S12057 1946 19 SI MM NOT_NAMED 1946-03-16 18:00:00 TS -23.0979 72.4723 main 1549 1549 O____P___OO___ jtwc_sh SH171946 -23.1000 72.5000 -1 -23.0915 72.3892 99 -23.1000 72.5000 TC 25 -23.1000 72.5000 7 8 127
1946070S12057 1946 19 SI MM NOT_NAMED 1946-03-16 21:00:00 TS -23.3091 72.7878 main 1583 1583 P____P___PP___ SH171946 -23.2999 72.8003 -1 -23.3161 72.7253 99 -23.2999 72.8003 TC 25 -23.3207 72.8254 7 7 126
1946070S12057 1946 19 SI MM NOT_NAMED 1946-03-17 00:00:00 TS -23.5211 73.1016 main 1617 1617 O____P___OP___ jtwc_sh SH171946 -23.5000 73.1000 -1 -23.5421 73.0560 99 -23.5000 73.1000 TC 25 -23.5422 73.1506 7 7 127
1946070S12057 1946 19 SI MM NOT_NAMED 1946-03-17 03:00:00 TS -23.7556 73.4354 main 1653 1653 P____P___PP___ SH171946 -23.7425 73.4425 -1 -23.7700 73.3811 99 -23.7425 73.4425 TC 25 -23.7676 73.4754 7 8 128
1946070S12057 1946 19 SI MM NOT_NAMED 1946-03-17 06:00:00 TS -24.0000 73.7750 reunion main 1697 1697 O____O___OO___ jtwc_sh SH171946 -24.0000 73.8000 -1 -24.0000 73.7000 99 9.90000 -24.0000 73.8000 TC 25 -24.0000 73.8000 7 8 128
1946070S12057 1946 19 SI MM NOT_NAMED 1946-03-17 09:00:00 TS -24.2390 74.1183 main 1731 1731 P____P___PP___ SH171946 -24.2500 74.1576 -1 -24.2133 74.0247 99 -24.2500 74.1576 TC 25 -24.2427 74.1333 7 8 128
1946070S12057 1946 19 SI MM NOT_NAMED 1946-03-17 12:00:00 TS -24.4798 74.4523 main 1777 1777 O____P___OP___ jtwc_sh SH171946 -24.5000 74.5000 -1 -24.4266 74.3441 99 -24.5000 74.5000 TC 25 -24.4924 74.4652 7 8 129
1946070S12057 1946 19 SI MM NOT_NAMED 1946-03-17 15:00:00 TS -24.7222 74.7655 main 1812 1812 P____P___PP___ SH171946 -24.7499 74.8077 -1 -24.6433 74.6572 99 -24.7499 74.8077 TC 25 -24.7459 74.7896 7 7 131
1946070S12057 1946 19 SI MM NOT_NAMED 1946-03-17 18:00:00 TS -24.9667 75.0658 main 1849 1849 O____P___OO___ jtwc_sh SH171946 -25.0000 75.1000 -1 -24.8669 74.9631 99 -25.0000 75.1000 TC 25 -25.0000 75.1000 7 7 132
1946070S12057 1946 19 SI MM NOT_NAMED 1946-03-17 21:00:00 TS -25.2096 75.3666 main 1883 1883 P____P___PP___ SH171946 -25.2500 75.4076 -1 -25.1009 75.2612 99 -25.2500 75.4076 TC 25 -25.2375 75.3900 7 7 133
1946070S12057 1946 19 SI MM NOT_NAMED 1946-03-18 00:00:00 TS -25.4565 75.6541 main 1920 1920 O____P___OP___ jtwc_sh SH171946 -25.5000 75.7000 -1 -25.3487 75.5505 99 -25.5000 75.7000 TC 25 -25.4771 75.6659 7 7 135
1946070S12057 1946 19 SI MM NOT_NAMED 1946-03-18 03:00:00 TS -25.7067 75.9199 main 1945 1945 P____P___PP___ SH171946 -25.7424 75.9577 -1 -25.6139 75.8304 99 -25.7424 75.9577 TC 25 -25.7282 75.9338 7 7 138
1946070S12057 1946 19 SI MM NOT_NAMED 1946-03-18 06:00:00 TS -25.9750 76.1750 reunion main 1983 1983 O____O___OO___ jtwc_sh SH171946 -26.0000 76.2000 -1 -25.9000 76.1000 99 9.90000 -26.0000 76.2000 TC 25 -26.0000 76.2000 7 7 141
1946070S12057 1946 19 SI MM NOT_NAMED 1946-03-18 09:00:00 TS -26.2778 76.4406 main 2011 2011 P____P___PP___ SH171946 -26.2849 76.4427 -1 -26.2541 76.3896 99 -26.2849 76.4427 TC 25 -26.2872 76.4874 7 8 143
1946070S12057 1946 19 SI MM NOT_NAMED 1946-03-18 12:00:00 TS -26.6079 76.7113 main 2048 2048 O____P___OP___ jtwc_sh SH171946 -26.6000 76.7000 -1 -26.6342 76.6725 99 -26.6000 76.7000 TC 25 -26.5976 76.7728 7 8 144
1946070S12057 1946 19 SI MM NOT_NAMED 1946-03-18 15:00:00 TS -26.9582 76.9979 main 2090 2090 P____P___PP___ SH171946 -26.9350 77.0001 -1 -27.0285 76.9448 99 -26.9350 77.0001 TC 25 -26.9341 77.0468 7 9 145
1946070S12057 1946 19 SI MM NOT_NAMED 1946-03-18 18:00:00 TS -27.3313 77.2756 main 2128 2128 O____P___OO___ jtwc_sh SH171946 -27.3000 77.3000 -1 -27.4251 77.2024 99 -27.3000 77.3000 TC 25 -27.3000 77.3000 7 9 148
1946070S12057 1946 19 SI MM NOT_NAMED 1946-03-18 21:00:00 TS -27.7197 77.5280 main 2160 2160 P____P___PP___ SH171946 -27.6850 77.5726 -1 -27.8123 77.4412 99 -27.6850 77.5726 TC 25 -27.6965 77.5257 7 9 153
1946070S12057 1946 19 SI MM NOT_NAMED 1946-03-19 00:00:00 TS -28.1282 77.7395 main 2192 2192 O____P___OP___ jtwc_sh SH171946 -28.1000 77.8000 -1 -28.1784 77.6568 99 -28.1000 77.8000 TC 25 -28.1175 77.7290 7 9 158
1946070S12057 1946 19 SI MM NOT_NAMED 1946-03-19 03:00:00 TS -28.5326 77.9083 main 2225 2225 P____P___PP___ SH171946 -28.5425 77.9674 -1 -28.5115 77.8446 99 -28.5425 77.9674 TC 25 -28.5548 77.9177 7 8 161
1946070S12057 1946 19 SI MM NOT_NAMED 1946-03-19 06:00:00 TS -28.8857 78.0429 reunion main 2249 2249 O____O___OO___ jtwc_sh SH171946 -29.0000 78.1000 -1 -28.8000 78.0000 99 9.90000 -29.0000 78.1000 TC 25 -29.0000 78.1000 7 5 160
1946070S12057 1946 19 SI MM NOT_NAMED 1946-03-19 09:00:00 NR -29.0353 78.1199 main 2262 2262 _____P________ SH171946 -1 -29.0353 78.1199 99 TC 7 4 157
1946070S12057 1946 19 SI MM NOT_NAMED 1946-03-19 12:00:00 NR -29.2214 78.2071 main 2279 2279 _____P________ -1 -29.2214 78.2071 99 7 4 159
1946070S12057 1946 19 SI MM NOT_NAMED 1946-03-19 15:00:00 NR -29.3654 78.2661 main 2289 2279 _____P________ -1 -29.3654 78.2661 99 7 3 162
1946070S12057 1946 19 SI MM NOT_NAMED 1946-03-19 18:00:00 NR -29.4743 78.3014 main 2279 2268 _____P________ -1 -29.4743 78.3014 99 2 168
1946070S12057 1946 19 SI MM NOT_NAMED 1946-03-19 21:00:00 NR -29.5553 78.3177 main 2268 2268 _____P________ -1 -29.5553 78.3177 99 1 171
1946070S12057 1946 19 SI MM NOT_NAMED 1946-03-20 00:00:00 NR -29.6152 78.3198 main 2268 2257 _____P________ -1 -29.6152 78.3198 99 1 0
1946070S12057 1946 19 SI MM NOT_NAMED 1946-03-20 03:00:00 NR -29.6611 78.3123 main 2257 2257 _____P________ -1 -29.6611 78.3123 99 1 197
1946070S12057 1946 19 SI MM NOT_NAMED 1946-03-20 06:00:00 NR -29.7000 78.3000 reunion main 2257 _____O________ -1 -29.7000 78.3000 99 9.90000 1 190

IBTrACS Databaseについて

本データベースは、米国NOAAが公開する1842年以降の世界の熱帯低気圧のベストトラックデータアーカイブInternational Best Track Archive for Climate Stewardship (IBTrACS)を、ウェブで閲覧しやすい形式に変換したものです。

最終更新日:2021-10-08